Time;durP1;ratioP1;P1;durP2;ratioP2;P2;SDS_P1;SDS_P2;PMS_P1;PMS_P2;Temp;Humidity;BMP_temperature;BMP_pressure;BME280_temperature;BME280_humidity;BME280_pressure;Samples;Min_cycle;Max_cycle;Signal;HPM_P1;HPM_P2
2021/01/19 00:02:02;;;;;;;;;;;;;;;13.52;40.44;100379.66;4401497;32;20323;-61
2021/01/19 00:04:28;;;;;;;;;;;;;;;13.49;40.46;100383.03;4402911;32;19968;-62
2021/01/19 00:06:54;;;;;;;;;;;;;;;13.49;40.46;100380.41;4403721;32;19950;-61
2021/01/19 00:09:20;;;;;;;;;;;;;;;13.51;40.46;100374.34;4401197;32;20070;-61
2021/01/19 00:11:45;;;;;;;;;;;;;;;13.53;40.42;100375.31;4377672;32;20292;-60
2021/01/19 00:14:11;;;;;;;;;;;;;;;13.52;40.45;100373.50;4358658;32;19947;-61
2021/01/19 00:16:37;;;;;;;;;;;;;;;13.52;40.45;100373.50;4387485;32;20009;-61
2021/01/19 00:19:03;;;;;;;;;;;;;;;13.49;40.42;100369.94;4373002;32;20034;-61
2021/01/19 00:21:29;;;;;;;;;;;;;;;13.51;40.42;100377.88;4365624;32;20273;-61
2021/01/19 00:23:55;;;;;;;;;;;;;;;13.50;40.43;100373.47;4382185;32;20006;-61
2021/01/19 00:26:21;;;;;;;;;;;;;;;13.49;40.41;100371.69;4393756;32;20279;-61
2021/01/19 00:28:47;;;;;;;;;;;;;;;13.52;40.39;100373.50;4391406;32;19955;-61
2021/01/19 00:31:13;;;;;;;;;;;;;;;13.51;40.40;100371.72;4402231;32;19954;-61
2021/01/19 00:33:38;;;;;;;;;;;;;;;13.49;40.41;100375.19;4403233;32;20011;-61
2021/01/19 00:36:04;;;;;;;;;;;;;;;13.49;40.40;100369.94;4387032;32;19982;-62
2021/01/19 00:38:30;;;;;;;;;;;;;;;13.49;40.40;100364.72;4371917;32;19943;-61
2021/01/19 00:40:56;;;;;;;;;;;;;;;13.49;40.41;100369.94;4380596;32;20664;-61
2021/01/19 00:43:22;;;;;;;;;;;;;;;13.47;40.41;100366.37;4387354;32;19949;-62
2021/01/19 00:45:48;;;;;;;;;;;;;;;13.48;40.39;100362.94;4383036;32;19994;-62
2021/01/19 00:48:14;;;;;;;;;;;;;;;13.46;40.40;100351.50;4372810;32;20034;-62
2021/01/19 00:50:40;;;;;;;;;;;;;;;13.46;40.40;100354.12;4376937;32;20003;-61
2021/01/19 00:53:05;;;;;;;;;;;;;;;13.48;40.37;100346.34;4387102;32;19994;-61
2021/01/19 00:55:31;;;;;;;;;;;;;;;13.48;40.37;100347.22;4376677;32;19954;-61
2021/01/19 00:57:57;;;;;;;;;;;;;;;13.47;40.38;100345.44;4375174;32;19973;-62
2021/01/19 01:00:23;;;;;;;;;;;;;;;13.47;40.37;100339.34;4384437;32;20100;-61
2021/01/19 01:02:49;;;;;;;;;;;;;;;13.47;40.36;100340.22;4372982;32;19971;-61
2021/01/19 01:05:15;;;;;;;;;;;;;;;13.47;40.35;100334.97;4375060;32;20002;-62
2021/01/19 01:07:41;;;;;;;;;;;;;;;13.47;40.34;100324.53;4392918;32;20546;-61
2021/01/19 01:10:07;;;;;;;;;;;;;;;13.47;40.34;100327.12;4385654;32;19961;-61
2021/01/19 01:12:33;;;;;;;;;;;;;;;13.46;40.35;100327.97;4385975;32;20264;-60
2021/01/19 01:14:58;;;;;;;;;;;;;;;13.47;40.33;100314.06;4386461;32;19950;-61
2021/01/19 01:17:24;;;;;;;;;;;;;;;13.46;40.34;100316.62;4386660;32;20352;-62
2021/01/19 01:19:50;;;;;;;;;;;;;;;13.45;40.36;100310.50;4372461;32;19974;-61
2021/01/19 01:22:16;;;;;;;;;;;;;;;13.46;40.34;100311.41;4386383;32;19954;-62
2021/01/19 01:24:42;;;;;;;;;;;;;;;13.45;40.34;100310.50;4377367;32;19962;-61
2021/01/19 01:27:08;;;;;;;;;;;;;;;13.45;40.34;100313.09;4401690;32;19951;-62
2021/01/19 01:29:34;;;;;;;;;;;;;;;13.45;40.33;100309.59;4386784;32;20331;-60
2021/01/19 01:32:00;;;;;;;;;;;;;;;13.45;40.33;100313.09;4401343;32;20042;-61
2021/01/19 01:34:25;;;;;;;;;;;;;;;13.45;40.34;100314.81;4372298;32;20592;-61
2021/01/19 01:36:51;;;;;;;;;;;;;;;13.45;40.32;100310.50;4381331;32;19955;-61
2021/01/19 01:39:17;;;;;;;;;;;;;;;13.45;40.32;100310.50;4369950;32;20001;-61
2021/01/19 01:41:43;;;;;;;;;;;;;;;13.45;40.32;100309.59;4377783;32;20335;-61
2021/01/19 01:44:09;;;;;;;;;;;;;;;13.44;40.32;100308.72;4388060;32;19965;-61
2021/01/19 01:46:35;;;;;;;;;;;;;;;13.44;40.32;100305.19;4377535;32;19955;-61
2021/01/19 01:49:01;;;;;;;;;;;;;;;13.44;40.33;100305.19;4373926;32;19955;-61
2021/01/19 01:51:27;;;;;;;;;;;;;;;13.43;40.33;100306.88;4377839;32;19959;-62
2021/01/19 01:53:52;;;;;;;;;;;;;;;13.43;40.32;100300.75;4388863;32;19954;-61
2021/01/19 01:56:19;;;;;;;;;;;;;;;13.43;40.32;100301.66;4375040;32;20374;-62
2021/01/19 01:58:45;;;;;;;;;;;;;;;13.44;40.32;100297.34;4388331;32;19974;-62
2021/01/19 02:01:11;;;;;;;;;;;;;;;13.42;40.29;100286.78;4396262;32;20436;-61
2021/01/19 02:03:37;;;;;;;;;;;;;;;13.42;40.30;100284.19;4404312;32;19947;-61
2021/01/19 02:06:03;;;;;;;;;;;;;;;13.41;40.31;100277.16;4403575;32;19950;-60
2021/01/19 02:08:29;;;;;;;;;;;;;;;13.41;40.30;100274.56;4366031;32;20284;-61
2021/01/19 02:10:55;;;;;;;;;;;;;;;13.42;40.29;100278.03;4360797;32;19987;-60
2021/01/19 02:13:20;;;;;;;;;;;;;;;13.41;40.29;100271.94;4386184;32;19951;-61
2021/01/19 02:15:47;;;;;;;;;;;;;;;13.41;40.30;100271.03;4399624;32;19954;-61
2021/01/19 02:18:12;;;;;;;;;;;;;;;13.42;40.27;100272.81;4368359;32;19939;-61
2021/01/19 02:20:38;;;;;;;;;;;;;;;13.40;40.29;100278.00;4371239;32;19974;-61
2021/01/19 02:23:04;;;;;;;;;;;;;;;13.40;40.30;100275.38;4374751;32;20008;-60
2021/01/19 02:25:30;;;;;;;;;;;;;;;13.42;40.28;100283.28;4389153;32;19955;-61
2021/01/19 02:27:56;;;;;;;;;;;;;;;13.41;40.29;100271.03;4365835;32;20547;-61
2021/01/19 02:30:22;;;;;;;;;;;;;;;13.40;40.27;100264.91;4365732;32;19962;-61
2021/01/19 02:32:48;;;;;;;;;;;;;;;13.41;40.27;100261.47;4388966;32;19997;-61
2021/01/19 02:35:14;;;;;;;;;;;;;;;13.41;40.27;100256.25;4388409;32;20006;-61
2021/01/19 02:37:40;;;;;;;;;;;;;;;13.40;40.26;100259.69;4384211;32;19963;-61
2021/01/19 02:40:06;;;;;;;;;;;;;;;13.41;40.25;100256.25;4359238;32;20324;-61
2021/01/19 02:42:33;;;;;;;;;;;;;;;13.39;40.27;100255.25;4378083;32;20008;-62
2021/01/19 02:44:58;;;;;;;;;;;;;;;13.39;40.28;100247.41;4388060;32;19955;-61
2021/01/19 02:47:24;;;;;;;;;;;;;;;13.40;40.24;100244.00;4393962;32;19993;-61
2021/01/19 02:49:50;;;;;;;;;;;;;;;13.40;40.24;100253.56;4374167;32;19954;-62
2021/01/19 02:52:16;;;;;;;;;;;;;;;13.40;40.24;100249.22;4372868;32;20365;-61
2021/01/19 02:54:42;;;;;;;;;;;;;;;13.39;40.25;100244.78;4372034;32;19966;-62
2021/01/19 02:57:08;;;;;;;;;;;;;;;13.41;40.22;100245.78;4373980;32;20022;-62
2021/01/19 02:59:34;;;;;;;;;;;;;;;13.40;40.20;100244.00;4387600;32;19998;-62
2021/01/19 03:02:00;;;;;;;;;;;;;;;13.38;40.23;100235.16;4373911;32;20391;-61
2021/01/19 03:04:25;;;;;;;;;;;;;;;13.39;40.24;100228.22;4387705;32;20002;-61
2021/01/19 03:06:51;;;;;;;;;;;;;;;13.38;40.23;100224.72;4387192;32;20006;-62
2021/01/19 03:09:17;;;;;;;;;;;;;;;13.38;40.21;100222.09;4365829;32;19939;-61
2021/01/19 03:11:43;;;;;;;;;;;;;;;13.38;40.20;100229.94;4372811;32;19970;-62
2021/01/19 03:14:09;;;;;;;;;;;;;;;13.37;40.21;100230.78;4384351;32;19961;-61
2021/01/19 03:16:35;;;;;;;;;;;;;;;13.38;40.20;100227.31;4387140;32;20033;-62
2021/01/19 03:19:01;;;;;;;;;;;;;;;13.37;40.19;100217.69;4376482;32;19963;-60
2021/01/19 03:21:27;;;;;;;;;;;;;;;13.37;40.19;100207.22;4372418;32;19955;-61
2021/01/19 03:23:53;;;;;;;;;;;;;;;13.38;40.19;100201.16;4381931;32;19963;-62
2021/01/19 03:26:18;;;;;;;;;;;;;;;13.38;40.16;100193.31;4374169;32;19997;-61
2021/01/19 03:28:44;;;;;;;;;;;;;;;13.38;40.16;100184.59;4378726;32;19990;-62
2021/01/19 03:31:10;;;;;;;;;;;;;;;13.38;40.15;100176.75;4380452;32;20015;-62
2021/01/19 03:33:36;;;;;;;;;;;;;;;13.37;40.14;100181.06;4402460;32;20064;-61
2021/01/19 03:36:02;;;;;;;;;;;;;;;13.38;40.13;100175.00;4402964;32;19988;-61
2021/01/19 03:38:28;;;;;;;;;;;;;;;13.37;40.15;100169.72;4372627;32;19983;-61
2021/01/19 03:40:54;;;;;;;;;;;;;;;13.37;40.12;100170.59;4388058;32;19951;-62
2021/01/19 03:43:20;;;;;;;;;;;;;;;13.37;40.13;100183.69;4371617;32;20597;-62
2021/01/19 03:45:46;;;;;;;;;;;;;;;13.37;40.13;100174.97;4372104;32;19962;-61
2021/01/19 03:48:12;;;;;;;;;;;;;;;13.37;40.13;100185.44;4373778;32;19958;-62
2021/01/19 03:50:38;;;;;;;;;;;;;;;13.36;40.12;100174.06;4386636;32;19962;-61
2021/01/19 03:53:03;;;;;;;;;;;;;;;13.35;40.13;100174.91;4386029;32;19935;-62
2021/01/19 03:55:30;;;;;;;;;;;;;;;13.37;40.10;100170.59;4380050;32;19954;-62
2021/01/19 03:57:56;;;;;;;;;;;;;;;13.37;40.11;100161.88;4388011;32;20041;-61
2021/01/19 04:00:22;;;;;;;;;;;;;;;13.35;40.12;100159.19;4373588;32;19943;-61
2021/01/19 04:02:48;;;;;;;;;;;;;;;13.35;40.12;100153.97;4387859;32;19970;-62
2021/01/19 04:05:13;;;;;;;;;;;;;;;13.34;40.10;100152.19;4374375;32;20379;-61
2021/01/19 04:07:39;;;;;;;;;;;;;;;13.35;40.11;100157.50;4401616;32;20353;-61
2021/01/19 04:10:05;;;;;;;;;;;;;;;13.34;40.10;100136.50;4400878;32;19981;-61
2021/01/19 04:12:31;;;;;;;;;;;;;;;13.35;40.11;100141.81;4388535;32;19950;-62
2021/01/19 04:14:57;;;;;;;;;;;;;;;13.34;40.09;100139.13;4385709;32;20319;-61
2021/01/19 04:17:23;;;;;;;;;;;;;;;13.35;40.11;100131.34;4371491;32;20029;-61
2021/01/19 04:19:49;;;;;;;;;;;;;;;13.34;40.10;100133.88;4380535;32;19962;-62
2021/01/19 04:22:15;;;;;;;;;;;;;;;13.34;40.10;100133.88;4394054;32;19990;-61
2021/01/19 04:24:40;;;;;;;;;;;;;;;13.34;40.08;100132.19;4375587;32;19951;-61
2021/01/19 04:27:06;;;;;;;;;;;;;;;13.35;40.06;100130.44;4371924;32;20320;-61
2021/01/19 04:29:32;;;;;;;;;;;;;;;13.35;40.08;100131.34;4357178;32;19955;-61
2021/01/19 04:31:58;;;;;;;;;;;;;;;13.34;40.07;100126.03;4383197;32;19965;-61
2021/01/19 04:34:24;;;;;;;;;;;;;;;13.34;40.07;100112.97;4367267;32;20343;-61
2021/01/19 04:36:50;;;;;;;;;;;;;;;13.33;40.07;100105.94;4371998;32;19955;-61
2021/01/19 04:39:16;;;;;;;;;;;;;;;13.33;40.06;100109.47;4375089;32;19951;-61
2021/01/19 04:41:42;;;;;;;;;;;;;;;13.32;40.08;100110.28;4387300;32;20011;-61
2021/01/19 04:44:08;;;;;;;;;;;;;;;13.33;40.07;100106.84;4383386;32;19995;-61
2021/01/19 04:46:33;;;;;;;;;;;;;;;13.33;40.06;100106.84;4372498;32;20006;-61
2021/01/19 04:48:59;;;;;;;;;;;;;;;13.34;40.05;100098.16;4372288;32;19962;-61
2021/01/19 04:51:27;;;;;;;;;;;;;;;13.36;40.03;100082.50;4395325;32;20364;-61
2021/01/19 04:53:53;;;;;;;;;;;;;;;13.36;40.01;100079.91;4400830;32;19966;-61
2021/01/19 04:56:19;;;;;;;;;;;;;;;13.39;39.96;100069.53;4386357;32;19973;-62
2021/01/19 04:58:45;;;;;;;;;;;;;;;13.44;39.87;100061.91;4385949;32;19996;-61
2021/01/19 05:01:11;;;;;;;;;;;;;;;13.51;39.74;100057.78;4400161;32;19954;-61
2021/01/19 05:03:37;;;;;;;;;;;;;;;13.55;39.65;100054.44;4402019;32;19951;-61
2021/01/19 05:06:03;;;;;;;;;;;;;;;13.59;39.59;100056.31;4400980;32;19966;-61
2021/01/19 05:08:29;;;;;;;;;;;;;;;13.61;39.53;100049.41;4387474;32;19970;-62
2021/01/19 05:13:39;;;;;;;;;;;;;;;13.61;39.51;100032.00;4382098;32;19969;-62
2021/01/19 05:16:05;;;;;;;;;;;;;;;13.58;39.58;100028.38;4382881;32;19998;-61
2021/01/19 05:18:31;;;;;;;;;;;;;;;13.57;39.62;100018.75;4388307;32;19954;-62
2021/01/19 05:20:57;;;;;;;;;;;;;;;13.52;39.68;100015.06;4389178;32;20041;-61
2021/01/19 05:23:23;;;;;;;;;;;;;;;13.51;39.72;100008.06;4388611;32;20042;-61
2021/01/19 05:25:49;;;;;;;;;;;;;;;13.48;39.76;99993.19;4384556;32;19955;-62
2021/01/19 05:28:14;;;;;;;;;;;;;;;13.47;39.77;100000.13;4374088;32;19986;-61
2021/01/19 05:30:41;;;;;;;;;;;;;;;13.46;39.78;99993.09;4381212;32;19955;-61
2021/01/19 05:33:07;;;;;;;;;;;;;;;13.45;39.80;99996.56;4389409;32;19938;-60
2021/01/19 05:35:32;;;;;;;;;;;;;;;13.44;39.82;99989.56;4388415;32;20005;-61
2021/01/19 05:37:58;;;;;;;;;;;;;;;13.43;39.83;99992.97;4401067;32;19965;-61
2021/01/19 05:40:24;;;;;;;;;;;;;;;13.42;39.83;99975.50;4403203;32;19965;-61
2021/01/19 05:42:50;;;;;;;;;;;;;;;13.40;39.85;99969.34;4404141;32;19959;-61
2021/01/19 05:45:16;;;;;;;;;;;;;;;13.40;39.86;99977.19;4403445;32;20110;-61
2021/01/19 05:47:42;;;;;;;;;;;;;;;13.39;39.88;99974.50;4389477;32;19965;-61
2021/01/19 05:50:08;;;;;;;;;;;;;;;13.39;39.87;99972.75;4379814;32;19958;-61
2021/01/19 05:52:34;;;;;;;;;;;;;;;13.38;39.88;99968.38;4404980;32;19962;-62
2021/01/19 05:55:00;;;;;;;;;;;;;;;13.38;39.89;99960.53;4404466;32;20304;-61
2021/01/19 05:57:26;;;;;;;;;;;;;;;13.38;39.90;99957.03;4375278;32;19955;-62
2021/01/19 05:59:52;;;;;;;;;;;;;;;13.39;39.87;99953.56;4378528;32;20010;-61
2021/01/19 06:02:18;;;;;;;;;;;;;;;13.42;39.85;99948.44;4371121;32;19955;-61
2021/01/19 06:04:43;;;;;;;;;;;;;;;13.46;39.77;99950.38;4386717;32;19951;-61
2021/01/19 06:07:10;;;;;;;;;;;;;;;13.47;39.73;99947.78;4388829;32;20432;-60
2021/01/19 06:09:35;;;;;;;;;;;;;;;13.49;39.70;99951.34;4367221;32;19959;-61
2021/01/19 06:12:02;;;;;;;;;;;;;;;13.54;39.63;99950.63;4380130;32;19989;-61
2021/01/19 06:14:28;;;;;;;;;;;;;;;13.57;39.59;99942.88;4389975;32;20745;-60
2021/01/19 06:16:53;;;;;;;;;;;;;;;13.58;39.57;99940.31;4388799;32;19951;-61
2021/01/19 06:19:19;;;;;;;;;;;;;;;13.59;39.55;99938.59;4380535;32;19958;-61
2021/01/19 06:21:45;;;;;;;;;;;;;;;13.60;39.54;99938.66;4397916;32;19951;-61
2021/01/19 06:24:11;;;;;;;;;;;;;;;13.55;39.59;99942.81;4396605;32;20311;-62
2021/01/19 06:26:37;;;;;;;;;;;;;;;13.51;39.63;99937.44;4397280;32;19970;-61
2021/01/19 06:29:03;;;;;;;;;;;;;;;13.48;39.67;99939.09;4379542;32;19959;-61
2021/01/19 06:31:29;;;;;;;;;;;;;;;13.47;39.69;99926.00;4397289;32;19946;-61
2021/01/19 06:33:55;;;;;;;;;;;;;;;13.45;39.73;99922.41;4371277;32;20005;-60
2021/01/19 06:36:20;;;;;;;;;;;;;;;13.44;39.76;99925.87;4390945;32;20041;-62
2021/01/19 06:38:46;;;;;;;;;;;;;;;13.43;39.78;99924.06;4390486;32;20337;-61
2021/01/19 06:41:12;;;;;;;;;;;;;;;13.42;39.79;99925.81;4395955;32;19942;-61
2021/01/19 06:43:38;;;;;;;;;;;;;;;13.40;39.80;99919.63;4396610;32;20028;-61
2021/01/19 06:46:04;;;;;;;;;;;;;;;13.41;39.80;99915.28;4396532;32;20029;-62
2021/01/19 06:48:30;;;;;;;;;;;;;;;13.39;39.81;99915.22;4394741;32;19974;-61
2021/01/19 06:50:56;;;;;;;;;;;;;;;13.38;39.82;99916.06;4395830;32;20389;-61
2021/01/19 06:53:23;;;;;;;;;;;;;;;13.38;39.82;99910.81;4396160;32;19955;-61
2021/01/19 06:55:48;;;;;;;;;;;;;;;13.37;39.83;99906.44;4397208;32;19983;-61
2021/01/19 06:58:14;;;;;;;;;;;;;;;13.35;39.85;99906.41;4394728;32;20013;-62
2021/01/19 07:00:40;;;;;;;;;;;;;;;13.36;39.86;99896.81;4393694;32;19939;-61
2021/01/19 07:03:06;;;;;;;;;;;;;;;13.38;39.86;99895.13;4397824;32;19966;-61
2021/01/19 07:05:32;;;;;;;;;;;;;;;13.39;39.83;99891.66;4401335;32;19969;-61
2021/01/19 07:07:58;;;;;;;;;;;;;;;13.44;39.77;99890.16;4391173;32;20331;-61
2021/01/19 07:10:24;;;;;;;;;;;;;;;13.47;39.67;99895.47;4394302;32;19973;-61
2021/01/19 07:12:50;;;;;;;;;;;;;;;13.51;39.62;99898.19;4389194;32;19963;-62
2021/01/19 07:15:16;;;;;;;;;;;;;;;13.54;39.54;99888.72;4390547;32;20331;-62
2021/01/19 07:17:42;;;;;;;;;;;;;;;13.59;39.51;99891.47;4376833;32;19982;-61
2021/01/19 07:20:08;;;;;;;;;;;;;;;13.61;39.41;99887.19;4389440;32;20000;-62
2021/01/19 07:22:34;;;;;;;;;;;;;;;13.60;39.44;99888.03;4391497;32;19963;-62
2021/01/19 07:25:00;;;;;;;;;;;;;;;13.59;39.45;99883.62;4390431;32;20045;-62
2021/01/19 07:27:25;;;;;;;;;;;;;;;13.56;39.49;99879.19;4390490;32;19965;-61
2021/01/19 07:29:51;;;;;;;;;;;;;;;13.54;39.51;99880.00;4371023;32;20368;-61
2021/01/19 07:32:17;;;;;;;;;;;;;;;13.52;39.55;99860.72;4391564;32;19991;-61
2021/01/19 07:34:43;;;;;;;;;;;;;;;13.49;39.56;99872.88;4401858;32;20003;-61
2021/01/19 07:37:09;;;;;;;;;;;;;;;13.47;39.59;99864.09;4400086;32;20764;-61
2021/01/19 07:39:35;;;;;;;;;;;;;;;13.46;39.65;99858.81;4378072;32;19959;-61
2021/01/19 07:42:01;;;;;;;;;;;;;;;13.43;39.68;99862.19;4387047;32;19960;-61
2021/01/19 07:44:28;;;;;;;;;;;;;;;13.42;39.69;99852.56;4371414;32;19954;-61
2021/01/19 07:46:53;;;;;;;;;;;;;;;13.41;39.71;99853.41;4386621;32;19974;-61
2021/01/19 07:49:19;;;;;;;;;;;;;;;13.41;39.74;99848.16;4399373;32;20099;-62
2021/01/19 07:51:45;;;;;;;;;;;;;;;13.39;39.77;99839.34;4401835;32;19965;-61
2021/01/19 07:54:11;;;;;;;;;;;;;;;13.40;39.78;99835.03;4377909;32;19951;-61
2021/01/19 07:56:37;;;;;;;;;;;;;;;13.38;39.78;99837.59;4384065;32;19951;-62
2021/01/19 07:59:03;;;;;;;;;;;;;;;13.38;39.78;99827.13;4371694;32;20361;-62
2021/01/19 08:01:29;;;;;;;;;;;;;;;13.38;39.80;99827.13;4386373;32;19997;-61
2021/01/19 08:03:55;;;;;;;;;;;;;;;13.37;39.82;99825.34;4374262;32;20405;-61
2021/01/19 08:06:21;;;;;;;;;;;;;;;13.38;39.82;99827.13;4382877;32;19951;-61
2021/01/19 08:08:47;;;;;;;;;;;;;;;13.39;39.81;99822.78;4376453;32;19955;-61
2021/01/19 08:11:12;;;;;;;;;;;;;;;13.45;39.79;99817.78;4371257;32;19951;-61
2021/01/19 08:13:38;;;;;;;;;;;;;;;13.46;39.70;99825.69;4371246;32;19989;-61
2021/01/19 08:16:04;;;;;;;;;;;;;;;13.49;39.69;99830.12;4374544;32;19966;-62
2021/01/19 08:18:30;;;;;;;;;;;;;;;13.58;39.62;99829.53;4374996;32;19958;-62
2021/01/19 08:20:56;;;;;;;;;;;;;;;13.57;39.80;99827.75;4357271;32;20428;-61
2021/01/19 08:23:24;;;;;;;;;;;;;;;13.56;39.86;99828.59;4363638;32;19969;-62
2021/01/19 08:25:50;;;;;;;;;;;;;;;13.57;39.83;99838.22;4389809;32;19975;-62
2021/01/19 08:28:16;;;;;;;;;;;;;;;13.63;39.77;99827.94;4385993;32;19984;-63
2021/01/19 08:30:44;;;;;;;;;;;;;;;13.66;39.68;99822.81;4391510;32;20340;-63
2021/01/19 08:33:10;;;;;;;;;;;;;;;13.66;39.66;99816.69;4376197;32;20029;-63
2021/01/19 08:35:36;;;;;;;;;;;;;;;13.64;39.76;99808.78;4372633;32;19962;-63
2021/01/19 08:38:02;;;;;;;;;;;;;;;13.62;39.79;99810.47;4387131;32;19951;-62
2021/01/19 08:40:27;;;;;;;;;;;;;;;13.59;39.77;99807.75;4371487;32;19962;-63
2021/01/19 08:42:53;;;;;;;;;;;;;;;13.57;39.84;99801.59;4377423;32;19969;-63
2021/01/19 08:45:19;;;;;;;;;;;;;;;13.54;39.82;99788.44;4386974;32;20029;-63
2021/01/19 08:47:46;;;;;;;;;;;;;;;13.51;39.91;99780.47;4400698;32;19974;-62
2021/01/19 08:50:12;;;;;;;;;;;;;;;13.48;39.92;99776.91;4385986;32;19959;-62
2021/01/19 08:52:38;;;;;;;;;;;;;;;13.48;39.93;99773.44;4385674;32;19959;-63
2021/01/19 08:55:04;;;;;;;;;;;;;;;13.47;39.95;99769.91;4362456;32;19959;-62
2021/01/19 08:57:32;;;;;;;;;;;;;;;13.45;39.92;99763.75;4394687;32;19982;-63
2021/01/19 08:59:58;;;;;;;;;;;;;;;13.44;39.94;99756.75;4400582;32;20279;-63
2021/01/19 09:02:24;;;;;;;;;;;;;;;13.44;39.95;99759.34;4401400;32;20022;-62
2021/01/19 09:04:50;;;;;;;;;;;;;;;13.44;39.97;99743.66;4376016;32;19998;-63
2021/01/19 09:07:16;;;;;;;;;;;;;;;13.43;39.98;99752.31;4386053;32;20002;-63
2021/01/19 09:09:42;;;;;;;;;;;;;;;13.42;39.99;99740.09;4378042;32;20012;-63
2021/01/19 09:12:08;;;;;;;;;;;;;;;13.41;40.00;99754.00;4378773;32;20067;-62
2021/01/19 09:14:33;;;;;;;;;;;;;;;13.40;40.00;99741.78;4368203;32;19955;-63
2021/01/19 09:16:59;;;;;;;;;;;;;;;13.41;40.04;99742.66;4371914;32;19981;-63
2021/01/19 09:19:25;;;;;;;;;;;;;;;13.43;40.02;99736.63;4377427;32;19992;-62
2021/01/19 09:21:51;;;;;;;;;;;;;;;13.46;39.95;99731.53;4373325;32;20346;-62
2021/01/19 09:24:17;;;;;;;;;;;;;;;13.51;39.87;99722.91;4379383;32;19970;-63
2021/01/19 09:26:56;;;;;;;;;;;;;;;13.56;39.82;99723.94;4371693;32;19947;-63
2021/01/19 09:29:22;;;;;;;;;;;;;;;13.59;39.73;99710.97;4375635;32;19956;-62
2021/01/19 09:31:47;;;;;;;;;;;;;;;13.64;39.64;99698.88;4386733;32;19995;-63
2021/01/19 09:34:13;;;;;;;;;;;;;;;13.66;39.59;99688.47;4384844;32;19972;-63
2021/01/19 09:36:42;;;;;;;;;;;;;;;13.67;39.57;99688.53;4396194;32;20017;-63
2021/01/19 09:39:08;;;;;;;;;;;;;;;13.67;39.56;99675.44;4399915;32;19992;-63
2021/01/19 09:41:34;;;;;;;;;;;;;;;13.67;39.57;99682.41;4387997;32;20547;-62
2021/01/19 09:44:00;;;;;;;;;;;;;;;13.66;39.59;99681.53;4399067;32;19990;-63
2021/01/19 09:46:26;;;;;;;;;;;;;;;13.63;39.59;99682.31;4371073;32;19958;-63
2021/01/19 09:48:51;;;;;;;;;;;;;;;13.61;39.67;99681.37;4371268;32;20370;-62
2021/01/19 09:51:17;;;;;;;;;;;;;;;13.58;39.73;99675.16;4386037;32;20260;-63
2021/01/19 09:53:43;;;;;;;;;;;;;;;13.55;39.77;99672.47;4385867;32;19950;-63
2021/01/19 09:56:09;;;;;;;;;;;;;;;13.53;39.81;99672.41;4372315;32;19947;-63
2021/01/19 09:58:35;;;;;;;;;;;;;;;13.51;39.83;99662.75;4369774;32;20323;-63
2021/01/19 10:01:01;;;;;;;;;;;;;;;13.49;39.85;99660.97;4384262;32;19970;-63
2021/01/19 10:03:27;;;;;;;;;;;;;;;13.47;39.87;99652.19;4386841;32;19966;-63
2021/01/19 10:05:53;;;;;;;;;;;;;;;13.46;39.91;99650.44;4389576;32;19988;-62
2021/01/19 10:08:18;;;;;;;;;;;;;;;13.48;39.84;99643.50;4386917;32;19985;-63
2021/01/19 10:10:44;;;;;;;;;;;;;;;13.44;39.94;99633.81;4373354;32;19994;-63
2021/01/19 10:13:10;;;;;;;;;;;;;;;13.40;40.00;99637.16;4398837;32;19955;-63
2021/01/19 10:15:36;;;;;;;;;;;;;;;13.41;39.97;99623.22;4386606;32;19977;-63
2021/01/19 10:18:02;;;;;;;;;;;;;;;13.43;39.95;99626.78;4365794;32;19951;-62
2021/01/19 10:20:28;;;;;;;;;;;;;;;13.43;39.95;99626.78;4379233;32;19998;-63
2021/01/19 10:22:54;;;;;;;;;;;;;;;13.44;39.94;99623.34;4384229;32;19950;-63
2021/01/19 10:25:20;;;;;;;;;;;;;;;13.43;39.99;99605.84;4387238;32;20747;-62
2021/01/19 10:27:46;;;;;;;;;;;;;;;13.45;40.02;99609.41;4387001;32;20017;-63
2021/01/19 10:30:12;;;;;;;;;;;;;;;13.48;39.97;99599.03;4383004;32;19955;-63
2021/01/19 10:32:38;;;;;;;;;;;;;;;13.52;39.91;99605.25;4359407;32;19969;-63
2021/01/19 10:35:03;;;;;;;;;;;;;;;13.57;39.85;99587.06;4375637;32;19959;-62
2021/01/19 10:37:29;;;;;;;;;;;;;;;13.62;39.72;99585.44;4387963;32;20344;-63
2021/01/19 10:39:58;;;;;;;;;;;;;;;13.66;39.67;99587.34;4385580;32;19994;-62
2021/01/19 10:42:24;;;;;;;;;;;;;;;13.68;39.64;99579.50;4386603;32;19969;-62
2021/01/19 10:44:50;;;;;;;;;;;;;;;13.69;39.65;99566.47;4386993;32;19967;-63
2021/01/19 10:47:16;;;;;;;;;;;;;;;13.68;39.67;99569.94;4392243;32;19984;-63
2021/01/19 10:49:42;;;;;;;;;;;;;;;13.67;39.71;99572.50;4401259;32;19950;-63
2021/01/19 10:52:08;;;;;;;;;;;;;;;13.68;39.71;99574.28;4373918;32;19951;-62
2021/01/19 10:54:34;;;;;;;;;;;;;;;13.68;39.73;99574.28;4372290;32;19951;-63
2021/01/19 10:57:00;;;;;;;;;;;;;;;13.65;39.78;99561.13;4385719;32;19968;-63
2021/01/19 10:59:26;;;;;;;;;;;;;;;13.63;39.81;99550.59;4370854;32;19973;-63
2021/01/19 11:01:52;;;;;;;;;;;;;;;13.59;39.85;99538.28;4373575;32;19951;-63
2021/01/19 11:04:17;;;;;;;;;;;;;;;13.57;39.91;99546.06;4375010;32;19984;-64
2021/01/19 11:06:44;;;;;;;;;;;;;;;13.54;39.95;99540.78;4379610;32;19962;-63
2021/01/19 11:09:10;;;;;;;;;;;;;;;13.53;40.00;99540.75;4400134;32;19992;-63
2021/01/19 11:11:36;;;;;;;;;;;;;;;13.51;40.01;99530.22;4402125;32;19958;-62
2021/01/19 11:14:03;;;;;;;;;;;;;;;13.49;40.03;99535.41;4401310;32;19976;-63
2021/01/19 11:16:29;;;;;;;;;;;;;;;13.49;40.05;99527.56;4381799;32;19973;-63
2021/01/19 11:18:55;;;;;;;;;;;;;;;13.49;40.06;99531.94;4383962;32;20000;-63
2021/01/19 11:21:21;;;;;;;;;;;;;;;13.48;40.09;99522.31;4386269;32;19951;-63
2021/01/19 11:23:47;;;;;;;;;;;;;;;13.47;40.12;99526.63;4390269;32;19985;-63
2021/01/19 11:26:13;;;;;;;;;;;;;;;13.46;40.12;99524.88;4400247;32;19981;-63
2021/01/19 11:28:39;;;;;;;;;;;;;;;13.46;40.15;99516.16;4400910;32;19969;-62
2021/01/19 11:31:05;;;;;;;;;;;;;;;13.45;40.17;99512.63;4396857;32;19951;-62
2021/01/19 11:33:31;;;;;;;;;;;;;;;13.47;40.15;99510.94;4370684;32;20053;-63
2021/01/19 11:35:57;;;;;;;;;;;;;;;13.48;40.18;99499.63;4373444;32;19951;-63
2021/01/19 11:38:24;;;;;;;;;;;;;;;13.51;40.14;99495.31;4381611;32;20038;-63
2021/01/19 11:40:50;;;;;;;;;;;;;;;13.55;40.06;99479.75;4382417;32;19950;-62
2021/01/19 11:43:17;;;;;;;;;;;;;;;13.59;39.99;99486.88;4386138;32;20389;-62
2021/01/19 11:45:43;;;;;;;;;;;;;;;13.64;39.88;99481.72;4384027;32;19979;-61
2021/01/19 11:48:09;;;;;;;;;;;;;;;13.69;39.86;99476.59;4386251;32;20322;-62
2021/01/19 11:50:34;;;;;;;;;;;;;;;13.69;39.85;99487.97;4397611;32;19962;-61
2021/01/19 11:53:00;;;;;;;;;;;;;;;13.71;39.83;99480.19;4389033;32;19951;-62
2021/01/19 11:55:26;;;;;;;;;;;;;;;13.70;39.87;99484.50;4385877;32;20000;-61
2021/01/19 11:57:52;;;;;;;;;;;;;;;13.70;39.87;99479.28;4385082;32;19954;-62
2021/01/19 12:00:18;;;;;;;;;;;;;;;13.71;39.88;99478.44;4399354;32;20026;-62
2021/01/19 12:02:44;;;;;;;;;;;;;;;13.70;39.90;99484.50;4394040;32;19986;-61
2021/01/19 12:05:10;;;;;;;;;;;;;;;13.68;39.96;99482.69;4392440;32;20020;-62
2021/01/19 12:07:36;;;;;;;;;;;;;;;13.67;39.98;99484.44;4390004;32;19972;-62
2021/01/19 12:10:01;;;;;;;;;;;;;;;13.63;40.06;99474.72;4386359;32;19966;-61
2021/01/19 12:12:27;;;;;;;;;;;;;;;13.61;40.12;99484.25;4397955;32;19965;-62
2021/01/19 12:14:53;;;;;;;;;;;;;;;13.59;40.15;99483.34;4401724;32;20335;-62
2021/01/19 12:17:19;;;;;;;;;;;;;;;13.58;40.16;99471.09;4392472;32;19986;-62
2021/01/19 12:19:45;;;;;;;;;;;;;;;13.56;40.20;99472.81;4385696;32;19998;-62
2021/01/19 12:22:11;;;;;;;;;;;;;;;13.54;40.24;99477.13;4394466;32;19977;-62
2021/01/19 12:24:38;;;;;;;;;;;;;;;13.52;40.26;99465.69;4401366;32;19973;-62
2021/01/19 12:27:04;;;;;;;;;;;;;;;13.51;40.27;99456.09;4397079;32;20353;-62
2021/01/19 12:29:30;;;;;;;;;;;;;;;13.51;40.30;99448.25;4393071;32;19969;-63
2021/01/19 12:31:56;;;;;;;;;;;;;;;13.49;40.32;99446.47;4392165;32;20399;-62
2021/01/19 12:34:22;;;;;;;;;;;;;;;13.49;40.32;99446.47;4391668;32;19955;-62
2021/01/19 12:36:48;;;;;;;;;;;;;;;13.48;40.35;99436.84;4392657;32;19959;-62
2021/01/19 12:39:14;;;;;;;;;;;;;;;13.49;40.37;99448.22;4391192;32;19981;-62